Time;durP1;ratioP1;P1;durP2;ratioP2;P2;SDS_P1;SDS_P2;PMS_P1;PMS_P2;Temp;Humidity;BMP_temperature;BMP_pressure;BME280_temperature;BME280_humidity;BME280_pressure;Samples;Min_cycle;Max_cycle;Signal;HPM_P1;HPM_P2
2021/10/28 00:19:19;;;;;;;0.67;0.67;;;13.90;99.90;;;;;;20288412;29;20232;-65
2021/10/28 00:29:26;;;;;;;0.20;0.10;;;13.80;99.90;;;;;;20334409;29;20559;-66
2021/10/28 00:39:30;;;;;;;0.47;0.40;;;13.90;99.90;;;;;;20333972;29;20238;-65
2021/10/28 00:49:35;;;;;;;0.53;0.53;;;13.90;99.90;;;;;;20344882;29;20899;-66
2021/10/28 00:59:38;;;;;;;0.33;0.33;;;13.90;99.90;;;;;;20335519;29;20222;-67
2021/10/28 01:09:44;;;;;;;2.13;0.50;;;13.90;99.90;;;;;;20337010;29;20560;-67
2021/10/28 01:19:51;;;;;;;0.57;0.40;;;13.90;99.90;;;;;;20311466;29;20696;-66
2021/10/28 01:29:55;;;;;;;0.20;0.17;;;13.90;99.90;;;;;;20271153;29;20559;-66
2021/10/28 01:40:00;;;;;;;0.20;0.10;;;13.80;99.90;;;;;;20336165;29;20309;-67
2021/10/28 01:50:04;;;;;;;0.30;0.30;;;13.60;99.90;;;;;;20346612;29;20224;-68
2021/10/28 02:00:16;;;;;;;0.93;0.83;;;13.50;99.90;;;;;;20347153;29;21087;-66
2021/10/28 02:10:21;;;;;;;0.93;0.93;;;13.50;99.90;;;;;;20346242;29;20758;-67
2021/10/28 02:20:26;;;;;;;0.30;0.30;;;13.40;99.90;;;;;;20343359;29;20325;-67
2021/10/28 02:30:32;;;;;;;0.37;0.33;;;13.30;99.90;;;;;;20343365;29;20297;-67
2021/10/28 02:40:37;;;;;;;0.43;0.43;;;13.30;99.90;;;;;;20342671;29;20242;-66
2021/10/28 02:50:41;;;;;;;0.57;0.57;;;13.20;99.90;;;;;;20342494;29;20672;-68
2021/10/28 03:00:47;;;;;;;0.37;0.37;;;13.10;99.90;;;;;;20353396;23;20242;-76
2021/10/28 03:10:51;;;;;;;0.20;0.20;;;13.10;99.90;;;;;;20340700;29;20664;-76
2021/10/28 03:31:19;;;;;;;0.40;0.30;;;13.10;99.90;;;;;;20338021;29;20233;-76
2021/10/28 04:33:24;;;;;;;0.20;0.10;;;13.20;99.90;;;;;;20256575;29;20222;-67
2021/10/28 04:43:29;;;;;;;0.63;0.63;;;13.20;99.90;;;;;;20257964;29;20274;-67
2021/10/28 04:53:33;;;;;;;0.67;0.60;;;13.20;99.90;;;;;;20269540;29;20249;-67
2021/10/28 05:03:38;;;;;;;1.37;0.60;;;13.10;99.90;;;;;;20271248;29;20241;-66
2021/10/28 05:13:42;;;;;;;0.70;0.70;;;13.10;99.90;;;;;;20271293;29;20583;-66
2021/10/28 05:23:47;;;;;;;9.13;1.53;;;13.00;99.90;;;;;;20270132;29;20195;-67
2021/10/28 05:33:50;;;;;;;0.43;0.43;;;13.00;99.90;;;;;;20268752;29;20721;-67
2021/10/28 05:43:56;;;;;;;0.30;0.30;;;12.90;99.90;;;;;;20266665;29;20361;-66
2021/10/28 05:54:00;;;;;;;2.30;1.13;;;12.80;99.90;;;;;;20266012;29;20231;-68
2021/10/28 06:04:06;;;;;;;0.20;0.20;;;12.70;99.90;;;;;;20262981;29;20621;-67
2021/10/28 06:14:10;;;;;;;1.30;0.50;;;12.80;99.90;;;;;;20262507;29;20325;-69
2021/10/28 06:24:15;;;;;;;0.20;0.10;;;12.50;99.90;;;;;;20193864;29;20217;-67
2021/10/28 06:34:21;;;;;;;0.20;0.20;;;12.60;99.90;;;;;;20170471;29;20231;-68
2021/10/28 06:44:26;;;;;;;5.40;1.13;;;12.50;99.90;;;;;;20185363;29;20204;-67
2021/10/28 06:54:33;;;;;;;1.87;0.93;;;12.70;99.90;;;;;;20184568;29;20565;-69
2021/10/28 07:04:38;;;;;;;1.07;0.80;;;12.70;99.90;;;;;;20212630;29;20233;-69
2021/10/28 07:14:46;;;;;;;1.50;0.33;;;12.90;99.90;;;;;;20258321;29;20230;-67
2021/10/28 07:35:27;;;;;;;0.57;0.33;;;13.40;99.90;;;;;;20247221;29;20269;-66
2021/10/28 07:56:37;;;;;;;1.77;0.87;;;14.00;99.90;;;;;;20258533;29;20226;-69
2021/10/28 08:17:11;;;;;;;0.53;0.53;;;15.10;99.90;;;;;;20194573;29;20223;-69
2021/10/28 08:37:43;;;;;;;1.63;1.53;;;15.20;99.90;;;;;;20257172;29;20704;-69
2021/10/28 08:47:52;;;;;;;0.83;0.83;;;15.60;99.90;;;;;;20254040;29;20439;-68
2021/10/28 09:29:23;;;;;;;1.83;1.27;;;17.80;99.90;;;;;;20253797;29;20559;-66
2021/10/28 09:50:09;;;;;;;0.30;0.30;;;18.70;99.90;;;;;;20343833;29;20277;-67
2021/10/28 10:00:13;;;;;;;0.30;0.30;;;18.90;99.90;;;;;;20343284;29;20337;-68
2021/10/28 10:10:19;;;;;;;0.37;0.37;;;19.90;99.90;;;;;;20302117;29;20645;-69
2021/10/28 10:20:31;;;;;;;1.43;0.73;;;20.10;99.90;;;;;;20263617;29;20231;-70
2021/10/28 12:46:30;;;;;;;0.28;0.28;;;24.70;99.90;;;;;;20229276;29;20213;-69
2021/10/28 12:56:50;;;;;;;1.02;0.70;;;24.00;99.90;;;;;;20252674;29;20580;-67
2021/10/28 13:48:45;;;;;;;1.42;1.35;;;25.60;99.90;;;;;;20226695;29;20207;-70
2021/10/28 15:32:57;;;;;;;0.93;0.60;;;21.80;99.90;;;;;;20253335;29;20262;-68
2021/10/28 15:43:35;;;;;;;1.03;0.93;;;21.30;99.90;;;;;;20253041;29;20257;-68
2021/10/28 16:24:54;;;;;;;0.60;0.53;;;20.10;99.90;;;;;;20248223;29;20680;-68
2021/10/28 16:34:58;;;;;;;0.80;0.30;;;20.00;99.90;;;;;;20252661;29;20222;-67
2021/10/28 16:45:04;;;;;;;0.27;0.20;;;19.60;99.90;;;;;;20259796;29;20301;-67
2021/10/28 16:55:09;;;;;;;1.70;0.63;;;19.10;99.90;;;;;;20268237;29;20620;-70
2021/10/28 17:05:16;;;;;;;0.30;0.20;;;18.90;99.90;;;;;;20263355;29;20230;-69
2021/10/28 17:15:19;;;;;;;0.33;0.27;;;18.70;99.90;;;;;;20267966;29;20235;-68
2021/10/28 17:25:26;;;;;;;0.20;0.20;;;18.60;99.90;;;;;;20265819;29;20213;-69
2021/10/28 17:35:29;;;;;;;0.40;0.40;;;18.30;99.90;;;;;;20239851;29;20238;-68
2021/10/28 17:45:37;;;;;;;0.40;0.40;;;17.70;99.90;;;;;;20190374;29;20662;-69
2021/10/28 17:55:41;;;;;;;1.07;1.07;;;17.50;99.90;;;;;;20188196;29;20781;-67
2021/10/28 18:05:47;;;;;;;0.20;0.20;;;17.10;99.90;;;;;;20188114;29;20231;-68
2021/10/28 18:15:52;;;;;;;3.20;1.40;;;16.80;99.90;;;;;;20192845;29;20625;-68
2021/10/28 18:25:58;;;;;;;1.03;0.73;;;16.50;99.90;;;;;;20260459;29;20558;-68
2021/10/28 18:36:04;;;;;;;0.40;0.40;;;16.30;99.90;;;;;;20246689;29;20222;-66
2021/10/28 18:46:10;;;;;;;3.30;0.53;;;16.20;99.90;;;;;;20261221;29;20672;-65
2021/10/28 18:56:14;;;;;;;0.20;0.10;;;16.10;99.90;;;;;;20258433;29;20238;-66
2021/10/28 19:06:19;;;;;;;0.30;0.30;;;15.90;99.90;;;;;;20257919;29;20257;-66
2021/10/28 19:16:23;;;;;;;0.40;0.33;;;15.80;99.90;;;;;;20258572;29;20230;-67
2021/10/28 19:26:29;;;;;;;0.33;0.33;;;15.60;99.90;;;;;;20255872;29;20210;-67
2021/10/28 19:36:35;;;;;;;0.20;0.20;;;15.60;99.90;;;;;;20256214;29;20547;-66
2021/10/28 19:46:41;;;;;;;0.40;0.30;;;15.40;99.90;;;;;;20255769;29;20589;-66
2021/10/28 19:56:45;;;;;;;0.20;0.10;;;15.20;99.90;;;;;;20256533;29;20575;-68
2021/10/28 20:06:57;;;;;;;0.50;0.50;;;15.00;99.90;;;;;;20255325;29;20588;-65
2021/10/28 20:27:24;;;;;;;0.50;0.30;;;15.30;99.90;;;;;;20211898;29;20199;-66
2021/10/28 20:37:27;;;;;;;0.30;0.30;;;15.30;99.90;;;;;;20224857;29;20281;-68
2021/10/28 20:47:32;;;;;;;0.50;0.50;;;15.20;99.90;;;;;;20254971;29;20205;-66
2021/10/28 20:57:36;;;;;;;0.43;0.43;;;15.10;99.90;;;;;;20247748;29;20581;-64
2021/10/28 21:07:42;;;;;;;0.77;0.77;;;15.00;99.90;;;;;;20214957;29;20226;-67
2021/10/28 21:17:46;;;;;;;1.00;0.87;;;14.80;99.90;;;;;;20211617;29;20765;-66
2021/10/28 21:27:51;;;;;;;1.03;0.77;;;14.80;99.90;;;;;;20219034;29;20199;-66
2021/10/28 21:38:15;;;;;;;0.33;0.33;;;14.50;99.90;;;;;;20236448;29;20986;-67
2021/10/28 21:48:21;;;;;;;0.60;0.53;;;14.40;99.90;;;;;;20229614;29;20195;-68
2021/10/28 21:58:37;;;;;;;0.83;0.47;;;14.30;99.90;;;;;;20227959;29;20255;-68
2021/10/28 22:29:27;;;;;;;6.03;0.93;;;14.30;99.90;;;;;;20225685;29;20206;-68
2021/10/28 22:39:47;;;;;;;1.57;1.47;;;14.50;99.90;;;;;;20226649;29;20237;-68
2021/10/28 22:49:55;;;;;;;0.30;0.23;;;14.40;99.90;;;;;;20224653;29;20195;-68
2021/10/28 23:00:00;;;;;;;0.40;0.40;;;14.30;99.90;;;;;;20222951;29;20254;-68
2021/10/28 23:10:28;;;;;;;0.70;0.70;;;14.40;99.90;;;;;;20223720;29;20195;-69
2021/10/28 23:20:41;;;;;;;0.47;0.40;;;14.40;99.90;;;;;;20224217;29;20693;-67
2021/10/28 23:30:46;;;;;;;1.53;0.77;;;14.50;99.90;;;;;;20222827;29;20240;-67
2021/10/28 23:40:50;;;;;;;1.83;0.90;;;14.50;99.90;;;;;;20221466;29;20235;-67
2021/10/28 23:50:56;;;;;;;0.20;0.10;;;14.50;99.90;;;;;;20219803;29;20331;-67
